Time;durP1;ratioP1;P1;durP2;ratioP2;P2;SDS_P1;SDS_P2;PMS_P1;PMS_P2;Temp;Humidity;BMP_temperature;BMP_pressure;BME280_temperature;BME280_humidity;BME280_pressure;Samples;Min_cycle;Max_cycle;Signal;HPM_P1;HPM_P2
2021/01/09 00:01:00;;;;;;;25.67;13.52;;;;;;;4.35;56.13;101530.22;4917288;29;20151;-65
2021/01/09 00:03:27;;;;;;;27.90;15.35;;;;;;;4.06;58.32;101534.16;4924674;29;20055;-67
2021/01/09 00:05:55;;;;;;;28.15;15.38;;;;;;;4.35;58.35;101538.41;4899432;29;20389;-67
2021/01/09 00:08:22;;;;;;;26.33;16.58;;;;;;;4.41;58.42;101540.13;4894399;29;20063;-65
2021/01/09 00:10:49;;;;;;;34.13;18.17;;;;;;;4.41;59.14;101539.31;4913658;29;20059;-65
2021/01/09 00:13:17;;;;;;;32.25;18.88;;;;;;;4.48;59.67;101535.31;4917570;29;20060;-65
2021/01/09 00:15:45;;;;;;;32.50;19.33;;;;;;;4.18;60.99;101531.34;4916552;29;20052;-67
2021/01/09 00:18:12;;;;;;;35.70;19.05;;;;;;;4.33;60.87;101537.00;4898684;29;20052;-66
2021/01/09 00:20:39;;;;;;;34.88;20.40;;;;;;;4.06;61.78;101536.91;4911014;29;20051;-66
2021/01/09 00:23:06;;;;;;;43.75;19.85;;;;;;;4.09;61.99;101530.97;4914616;29;20060;-65
2021/01/09 00:25:33;;;;;;;33.35;19.40;;;;;;;3.58;63.06;101531.25;4916562;29;20052;-67
2021/01/09 00:28:00;;;;;;;35.40;18.42;;;;;;;3.95;62.35;101531.56;4914791;29;20063;-67
2021/01/09 00:30:26;;;;;;;33.95;19.85;;;;;;;3.94;62.50;101530.72;4914760;29;20040;-65
2021/01/09 00:32:53;;;;;;;24.90;14.98;;;;;;;3.84;60.74;101536.03;4911805;29;20504;-64
2021/01/09 00:35:20;;;;;;;18.70;10.52;;;;;;;3.81;56.80;101536.53;4916456;29;20088;-67
2021/01/09 00:37:47;;;;;;;19.48;10.60;;;;;;;3.94;56.05;101538.91;4916553;29;20052;-66
2021/01/09 00:40:14;;;;;;;20.13;11.02;;;;;;;3.85;55.70;101545.03;4916291;29;20052;-66
2021/01/09 00:42:41;;;;;;;17.77;10.90;;;;;;;3.55;56.65;101542.66;4916682;29;20060;-66
2021/01/09 00:45:09;;;;;;;26.63;13.95;;;;;;;3.74;56.46;101545.94;4917110;29;20074;-65
2021/01/09 00:47:39;;;;;;;23.48;13.77;;;;;;;3.76;56.61;101550.06;4917254;29;20055;-67
2021/01/09 00:50:06;;;;;;;22.05;11.65;;;;;;;3.69;56.48;101549.41;4899982;29;20060;-63
2021/01/09 00:52:33;;;;;;;19.98;11.25;;;;;;;3.68;56.57;101547.75;4916187;29;20043;-67
2021/01/09 00:55:01;;;;;;;17.35;10.68;;;;;;;3.78;56.90;101547.94;4916664;29;20047;-64
2021/01/09 00:57:30;;;;;;;17.13;10.85;;;;;;;4.09;56.40;101550.03;4900238;29;20052;-65
2021/01/09 00:59:57;;;;;;;21.83;12.25;;;;;;;3.97;56.98;101551.22;4915238;29;20056;-67
2021/01/09 01:02:24;;;;;;;21.65;10.85;;;;;;;3.68;57.26;101550.47;4900057;29;20060;-66
2021/01/09 01:04:51;;;;;;;19.52;11.70;;;;;;;3.69;58.06;101546.69;4917173;29;20036;-67
2021/01/09 01:07:18;;;;;;;19.13;12.00;;;;;;;3.77;57.66;101546.28;4916444;29;20156;-66
2021/01/09 01:09:45;;;;;;;18.98;10.50;;;;;;;3.78;58.22;101550.66;4900016;29;20060;-68
2021/01/09 01:12:12;;;;;;;17.23;10.57;;;;;;;3.73;58.26;101557.91;4899618;29;20063;-66
2021/01/09 01:14:39;;;;;;;19.63;10.40;;;;;;;3.53;58.03;101563.84;4916796;29;20048;-65
2021/01/09 01:17:06;;;;;;;17.38;10.88;;;;;;;3.51;59.04;101560.53;4916260;29;20044;-66
2021/01/09 01:19:38;;;;;;;17.15;10.45;;;;;;;3.58;58.61;101560.38;4916371;29;20056;-66
2021/01/09 01:22:05;;;;;;;18.35;11.85;;;;;;;3.55;59.70;101555.44;4916243;29;20501;-67
2021/01/09 01:24:32;;;;;;;21.70;12.38;;;;;;;3.56;60.89;101555.19;4916470;29;20048;-66
2021/01/09 01:26:59;;;;;;;23.08;13.55;;;;;;;3.51;61.16;101562.44;4915074;29;20063;-68
2021/01/09 01:29:27;;;;;;;22.00;13.00;;;;;;;3.41;62.27;101568.53;4916099;29;20052;-67
2021/01/09 01:31:57;;;;;;;27.08;15.40;;;;;;;3.04;64.27;101578.19;4916613;29;20044;-67
2021/01/09 01:34:24;;;;;;;25.00;14.90;;;;;;;2.94;64.54;101564.38;4916009;29;20408;-67
2021/01/09 01:36:52;;;;;;;25.50;14.95;;;;;;;3.02;64.92;101583.03;4915611;29;20055;-66
2021/01/09 01:39:18;;;;;;;22.92;14.10;;;;;;;3.35;63.36;101580.41;4916129;29;20512;-68
2021/01/09 01:41:45;;;;;;;25.42;13.82;;;;;;;3.23;63.37;101583.19;4915640;29;20071;-66
2021/01/09 01:44:13;;;;;;;22.27;13.82;;;;;;;3.02;64.35;101581.16;4898544;29;20063;-66
2021/01/09 01:46:40;;;;;;;23.75;14.82;;;;;;;3.03;64.68;101584.72;4916082;29;20408;-68
2021/01/09 01:49:07;;;;;;;22.92;14.88;;;;;;;3.17;64.83;101588.78;4915750;29;20051;-66
2021/01/09 01:51:34;;;;;;;25.65;15.68;;;;;;;3.15;64.70;101589.03;4897278;29;20413;-65
2021/01/09 01:54:02;;;;;;;23.60;14.82;;;;;;;2.95;64.66;101596.78;4883769;29;20056;-65
2021/01/09 01:56:29;;;;;;;23.48;14.57;;;;;;;2.57;65.57;101601.16;4918504;29;20044;-66
2021/01/09 01:58:56;;;;;;;24.70;15.32;;;;;;;2.58;65.80;101598.19;4913721;29;20055;-65
2021/01/09 02:01:23;;;;;;;23.25;14.70;;;;;;;2.73;65.52;101595.81;4902924;29;20103;-67
2021/01/09 02:03:50;;;;;;;27.08;16.85;;;;;;;2.83;65.69;101589.72;4918578;29;20059;-64
2021/01/09 02:06:20;;;;;;;28.40;17.20;;;;;;;2.81;65.65;101591.88;4938569;29;20058;-66
2021/01/09 02:08:57;;;;;;;27.40;16.90;;;;;;;2.86;65.19;101600.97;4916993;29;20048;-67
2021/01/09 02:11:38;;;;;;;25.70;16.58;;;;;;;2.96;65.11;101603.91;4918119;29;20521;-67
2021/01/09 02:14:11;;;;;;;24.30;15.63;;;;;;;3.03;64.26;101607.28;4918016;29;20063;-66
2021/01/09 02:16:39;;;;;;;25.95;15.10;;;;;;;2.95;63.52;101606.84;4918187;29;20064;-65
2021/01/09 02:19:10;;;;;;;22.98;14.38;;;;;;;2.96;63.07;101611.22;4934285;29;20066;-66
2021/01/09 02:21:40;;;;;;;24.75;13.70;;;;;;;3.06;62.50;101608.72;4902676;29;20431;-66
2021/01/09 02:24:12;;;;;;;23.98;14.93;;;;;;;2.85;63.26;101609.38;4935032;29;20047;-66
2021/01/09 02:26:39;;;;;;;27.77;14.93;;;;;;;2.93;63.12;101606.28;4934717;29;20197;-65
2021/01/09 02:29:06;;;;;;;25.15;14.57;;;;;;;3.09;62.34;101611.78;4917886;29;20050;-66
2021/01/09 02:31:47;;;;;;;22.65;14.73;;;;;;;2.95;63.00;101604.13;4933269;29;20051;-66
2021/01/09 02:34:14;;;;;;;24.23;14.02;;;;;;;2.93;62.84;101607.09;4901607;29;20043;-66
2021/01/09 02:36:41;;;;;;;23.25;13.50;;;;;;;2.94;62.35;101605.19;4916970;29;20059;-65
2021/01/09 02:39:08;;;;;;;24.40;14.57;;;;;;;2.98;62.13;101606.38;4920126;29;20067;-66
2021/01/09 02:41:36;;;;;;;24.40;13.55;;;;;;;3.10;61.82;101605.25;4938965;29;20066;-66
2021/01/09 02:44:12;;;;;;;21.45;13.18;;;;;;;2.93;62.16;101606.28;4936792;29;20048;-66
2021/01/09 02:46:39;;;;;;;26.20;13.70;;;;;;;2.90;62.50;101609.47;4938806;29;20047;-69
2021/01/09 02:49:07;;;;;;;22.13;13.50;;;;;;;2.91;62.44;101600.25;4937362;29;20062;-67
2021/01/09 02:51:34;;;;;;;23.00;14.02;;;;;;;2.70;62.96;101606.34;4937836;29;20051;-66
2021/01/09 02:54:01;;;;;;;22.63;13.48;;;;;;;2.77;63.38;101613.28;4930245;29;20056;-67
2021/01/09 02:56:28;;;;;;;22.10;13.73;;;;;;;2.65;63.39;101608.97;4938406;29;20052;-66
2021/01/09 02:58:55;;;;;;;21.52;12.75;;;;;;;2.53;63.09;101614.41;4937332;29;20051;-66
2021/01/09 03:01:26;;;;;;;19.52;13.05;;;;;;;2.61;62.35;101615.94;4937271;29;20067;-68
2021/01/09 03:03:56;;;;;;;16.45;10.90;;;;;;;2.56;62.32;101613.94;4937847;29;20416;-67
2021/01/09 03:06:24;;;;;;;18.25;12.05;;;;;;;2.43;62.84;101622.34;4938388;29;20388;-66
2021/01/09 03:08:52;;;;;;;18.30;11.70;;;;;;;2.62;62.24;101610.25;4921861;29;20047;-68
2021/01/09 03:11:19;;;;;;;19.85;11.70;;;;;;;2.76;61.85;101613.53;4923061;29;20436;-68
2021/01/09 03:13:46;;;;;;;19.42;12.20;;;;;;;2.86;61.80;101608.31;4939776;29;20397;-66
2021/01/09 03:16:13;;;;;;;19.90;12.20;;;;;;;2.60;61.95;101612.38;4938832;29;20043;-69
2021/01/09 03:18:42;;;;;;;20.23;12.30;;;;;;;2.54;62.40;101615.22;4937221;29;20067;-68
2021/01/09 03:21:09;;;;;;;21.02;12.68;;;;;;;2.65;62.24;101620.63;4938225;29;20051;-67
2021/01/09 03:23:36;;;;;;;20.52;12.68;;;;;;;2.51;62.08;101618.44;4936935;29;20480;-66
2021/01/09 03:26:03;;;;;;;20.27;11.43;;;;;;;2.59;62.11;101618.91;4919796;29;20059;-65
2021/01/09 03:28:30;;;;;;;19.58;11.45;;;;;;;2.61;61.66;101619.47;4936320;29;20064;-68
2021/01/09 03:30:57;;;;;;;22.60;13.35;;;;;;;2.56;61.17;101613.94;4903585;29;20056;-66
2021/01/09 03:33:24;;;;;;;17.73;11.35;;;;;;;2.42;62.08;101617.97;4936721;29;20054;-64
2021/01/09 03:35:51;;;;;;;17.63;10.50;;;;;;;2.66;62.20;101618.75;4937636;29;20067;-67
2021/01/09 03:38:18;;;;;;;21.45;11.40;;;;;;;2.80;61.70;101609.25;4908088;29;20072;-66
2021/01/09 03:40:45;;;;;;;18.90;11.85;;;;;;;2.74;61.82;101612.94;4918498;29;20089;-67
2021/01/09 03:43:12;;;;;;;19.95;11.93;;;;;;;2.68;61.80;101611.19;4918085;29;20052;-66
2021/01/09 03:45:39;;;;;;;19.63;11.43;;;;;;;2.61;62.30;101613.22;4917959;29;20512;-68
2021/01/09 03:48:07;;;;;;;21.88;11.75;;;;;;;2.63;62.38;101611.91;4896464;29;20052;-67
2021/01/09 03:50:34;;;;;;;19.75;11.50;;;;;;;2.55;62.99;101623.16;4935524;29;20530;-67
2021/01/09 03:53:02;;;;;;;19.08;10.88;;;;;;;2.68;62.77;101620.19;4927607;29;20063;-67
2021/01/09 03:55:29;;;;;;;21.55;11.20;;;;;;;2.78;62.06;101614.13;4933573;29;20044;-66
2021/01/09 03:57:55;;;;;;;15.68;10.45;;;;;;;2.64;61.85;101613.56;4936668;29;20064;-66
2021/01/09 04:00:22;;;;;;;16.70;10.60;;;;;;;2.78;61.93;101616.84;4936980;29;20048;-67
2021/01/09 04:02:49;;;;;;;19.13;11.80;;;;;;;2.72;61.48;101615.09;4936047;29;20047;-66
2021/01/09 04:05:16;;;;;;;16.08;10.10;;;;;;;2.64;61.77;101607.28;4937047;29;20063;-67
2021/01/09 04:07:43;;;;;;;18.42;10.75;;;;;;;2.83;61.89;101603.34;4926485;29;20052;-66
2021/01/09 04:10:10;;;;;;;18.27;11.02;;;;;;;2.63;62.03;101603.75;4901227;29;20060;-66
2021/01/09 04:12:37;;;;;;;18.02;11.07;;;;;;;2.55;61.84;101603.28;4925750;29;20058;-64
2021/01/09 04:15:05;;;;;;;20.05;11.15;;;;;;;2.76;62.01;101608.09;4936556;29;20055;-66
2021/01/09 04:17:32;;;;;;;19.95;11.48;;;;;;;2.86;61.96;101600.97;4934391;29;20048;-65
2021/01/09 04:19:59;;;;;;;21.42;11.68;;;;;;;3.04;61.56;101603.50;4930912;29;20051;-66
2021/01/09 04:22:26;;;;;;;17.60;11.32;;;;;;;2.98;61.69;101609.09;4919842;29;20060;-66
2021/01/09 04:24:53;;;;;;;21.63;12.55;;;;;;;2.78;62.65;101603.22;4936005;29;20052;-67
2021/01/09 04:27:20;;;;;;;21.35;12.82;;;;;;;2.74;63.00;101611.03;4936108;29;20070;-67
2021/01/09 04:29:47;;;;;;;20.13;12.70;;;;;;;2.76;62.86;101605.38;4935407;29;20052;-65
2021/01/09 04:32:15;;;;;;;19.52;12.05;;;;;;;2.71;63.20;101614.25;4934983;29;20051;-67
2021/01/09 04:34:42;;;;;;;22.40;13.25;;;;;;;2.81;63.17;101609.03;4919237;29;20062;-65
2021/01/09 04:37:09;;;;;;;22.58;13.60;;;;;;;2.58;63.48;101613.69;4919246;29;20415;-65
2021/01/09 04:39:36;;;;;;;24.73;14.48;;;;;;;2.80;63.83;101612.81;4903520;29;20058;-66
2021/01/09 04:42:03;;;;;;;24.88;15.30;;;;;;;2.72;64.13;101612.38;4936056;29;20518;-66
2021/01/09 04:44:31;;;;;;;25.50;14.55;;;;;;;2.76;63.87;101617.06;4935873;29;20055;-66
2021/01/09 04:47:00;;;;;;;25.00;14.88;;;;;;;2.90;63.86;101612.19;4935648;29;20062;-66
2021/01/09 04:49:29;;;;;;;25.85;16.23;;;;;;;2.50;65.77;101627.63;4935407;29;20481;-65
2021/01/09 04:52:00;;;;;;;30.80;17.33;;;;;;;2.41;66.53;101610.88;4932484;29;20055;-66
2021/01/09 04:54:27;;;;;;;27.55;16.88;;;;;;;2.49;66.99;101615.13;4935811;29;20055;-67
2021/01/09 04:56:55;;;;;;;29.98;17.45;;;;;;;2.56;66.92;101615.81;4902928;29;20393;-66
2021/01/09 04:59:23;;;;;;;31.35;18.40;;;;;;;2.51;67.81;101608.38;4919479;29;20047;-65
2021/01/09 05:01:52;;;;;;;31.17;17.08;;;;;;;2.46;67.69;101610.97;4933886;29;20047;-66
2021/01/09 05:04:20;;;;;;;29.83;18.50;;;;;;;2.47;68.43;101609.09;4919161;29;20333;-67
2021/01/09 05:06:47;;;;;;;33.38;19.00;;;;;;;2.72;67.83;101615.91;4919342;29;20055;-67
2021/01/09 05:09:15;;;;;;;30.67;18.15;;;;;;;2.87;67.78;101626.28;4918510;29;20465;-65
2021/01/09 05:11:45;;;;;;;31.08;18.83;;;;;;;2.85;67.95;101620.25;4935166;29;20070;-65
2021/01/09 05:14:12;;;;;;;30.85;19.30;;;;;;;2.97;67.58;101621.03;4934875;29;20086;-66
2021/01/09 05:16:39;;;;;;;29.90;19.40;;;;;;;2.79;68.13;101630.19;4935119;29;20070;-66
2021/01/09 05:19:07;;;;;;;37.13;20.48;;;;;;;2.40;69.73;101627.41;4902414;29;20059;-66
2021/01/09 05:21:36;;;;;;;32.95;19.95;;;;;;;2.45;70.01;101632.97;4935557;29;20051;-65
2021/01/09 05:24:05;;;;;;;36.55;20.70;;;;;;;2.62;69.91;101639.31;4935504;29;20054;-65
2021/01/09 05:26:33;;;;;;;31.98;20.42;;;;;;;2.78;69.58;101641.31;4934762;29;20059;-66
2021/01/09 05:29:01;;;;;;;35.53;20.60;;;;;;;2.45;70.00;101635.69;4934798;29;20048;-66
2021/01/09 05:31:39;;;;;;;36.33;22.15;;;;;;;2.72;69.46;101632.22;4932210;29;20056;-65
2021/01/09 05:34:09;;;;;;;36.40;20.50;;;;;;;2.74;69.47;101640.97;4932535;29;20052;-67
2021/01/09 05:36:36;;;;;;;32.85;19.88;;;;;;;2.74;68.99;101635.53;4935096;29;20404;-66
2021/01/09 05:39:04;;;;;;;39.53;20.38;;;;;;;2.76;68.99;101638.00;4928362;29;20056;-65
2021/01/09 05:41:31;;;;;;;37.15;22.42;;;;;;;2.62;69.60;101633.88;4914563;29;20062;-66
2021/01/09 05:44:03;;;;;;;33.55;20.70;;;;;;;2.57;69.89;101639.22;4920315;29;20044;-66
2021/01/09 05:46:32;;;;;;;37.30;21.70;;;;;;;2.71;69.39;101638.72;4935788;29;20051;-67
2021/01/09 05:48:59;;;;;;;;;;;;;;;2.66;69.52;101643.22;4909868;29;20048;-66
2021/01/09 05:51:31;;;;;;;38.55;22.30;;;;;;;2.42;70.75;101637.00;4927108;29;19934;-65
2021/01/09 05:53:58;;;;;;;38.17;21.77;;;;;;;2.34;70.82;101652.84;4934492;29;20055;-67
2021/01/09 05:56:25;;;;;;;37.53;22.35;;;;;;;2.42;70.54;101647.03;4932549;29;20067;-66
2021/01/09 05:58:54;;;;;;;38.85;23.38;;;;;;;2.27;71.55;101650.22;4934404;29;20054;-67
2021/01/09 06:01:30;;;;;;;39.80;24.45;;;;;;;2.00;72.35;101649.88;4934575;29;20381;-67
2021/01/09 06:04:08;;;;;;;38.70;24.08;;;;;;;1.95;72.94;101659.78;4933860;29;20063;-67
2021/01/09 06:06:45;;;;;;;40.67;22.90;;;;;;;2.17;72.27;101653.53;4903221;29;20047;-67
2021/01/09 06:09:18;;;;;;;41.03;25.13;;;;;;;2.16;72.37;101656.50;4902832;29;20530;-67
2021/01/09 06:11:46;;;;;;;43.17;24.67;;;;;;;2.00;72.44;101663.47;4920040;29;20060;-65
2021/01/09 06:14:13;;;;;;;45.33;25.48;;;;;;;1.87;73.79;101669.09;4937265;29;20047;-67
2021/01/09 06:16:42;;;;;;;42.95;24.98;;;;;;;1.78;73.72;101667.75;4917722;29;20059;-67
2021/01/09 06:19:09;;;;;;;40.80;25.00;;;;;;;1.94;73.91;101674.41;4934086;29;20500;-66
2021/01/09 06:21:37;;;;;;;45.45;26.25;;;;;;;1.99;73.49;101667.22;4934266;29;20047;-66
2021/01/09 06:24:06;;;;;;;39.13;24.85;;;;;;;2.00;73.07;101677.03;4934875;29;20050;-64
2021/01/09 06:26:33;;;;;;;42.63;25.75;;;;;;;2.00;73.11;101678.94;4934483;29;20063;-67
2021/01/09 06:29:04;;;;;;;42.08;25.00;;;;;;;1.82;74.00;101674.41;4934326;29;20058;-67
2021/01/09 06:31:32;;;;;;;41.88;25.60;;;;;;;1.85;74.09;101679.34;4901501;29;20056;-68
2021/01/09 06:34:02;;;;;;;48.53;27.10;;;;;;;1.73;74.53;101677.66;4934778;29;20105;-67
2021/01/09 06:36:30;;;;;;;45.33;26.67;;;;;;;1.73;74.91;101683.94;4899110;29;20055;-66
2021/01/09 06:38:57;;;;;;;44.60;26.48;;;;;;;1.82;74.24;101695.28;4928268;29;20044;-66
2021/01/09 06:41:30;;;;;;;43.97;26.23;;;;;;;1.82;74.90;101687.13;4931080;29;20056;-67
2021/01/09 06:44:01;;;;;;;49.35;28.25;;;;;;;1.82;75.43;101687.13;4900008;29;20059;-66
2021/01/09 06:46:35;;;;;;;47.80;27.05;;;;;;;1.88;74.77;101684.31;4917517;29;20377;-66
2021/01/09 06:49:03;;;;;;;50.72;28.73;;;;;;;1.60;76.02;101705.88;4933398;29;20376;-67
2021/01/09 06:51:32;;;;;;;54.90;30.42;;;;;;;1.48;76.67;101690.56;4933651;29;20056;-66
2021/01/09 06:54:29;;;;;;;51.13;27.65;;;;;;;1.40;76.98;101705.28;4932493;29;20059;-67
2021/01/09 06:57:02;;;;;;;57.85;29.27;;;;;;;1.27;77.67;101700.06;4916807;29;20048;-67
2021/01/09 06:59:33;;;;;;;49.47;28.27;;;;;;;1.50;77.40;101700.13;4933869;29;20060;-66
2021/01/09 07:02:18;;;;;;;54.08;30.05;;;;;;;1.26;77.64;101705.69;4933526;29;20060;-67
2021/01/09 07:04:55;;;;;;;55.63;31.90;;;;;;;1.70;76.57;101705.28;4934119;29;20067;-68
2021/01/09 07:07:35;;;;;;;53.80;30.35;;;;;;;1.67;76.27;101714.75;4923435;29;20051;-67
2021/01/09 07:10:25;;;;;;;53.38;30.58;;;;;;;1.57;77.41;101700.06;4930425;29;20407;-68
2021/01/09 07:12:54;;;;;;;54.88;30.30;;;;;;;1.57;77.18;101719.06;4931349;29;20126;-67
2021/01/09 07:15:22;;;;;;;56.17;31.35;;;;;;;1.65;77.60;101716.84;4925819;29;20059;-68
2021/01/09 07:17:54;;;;;;;57.72;31.13;;;;;;;1.55;78.02;101711.13;4941196;29;20048;-67
2021/01/09 07:20:24;;;;;;;59.58;30.98;;;;;;;1.87;76.88;101712.56;4927136;29;20503;-67
2021/01/09 07:22:53;;;;;;;56.85;31.73;;;;;;;1.97;76.18;101715.53;4914403;29;20047;-66
2021/01/09 07:25:35;;;;;;;61.58;34.83;;;;;;;1.76;77.12;101718.75;4912367;29;20401;-68
2021/01/09 07:28:08;;;;;;;63.13;31.98;;;;;;;1.73;77.72;101716.53;4903955;29;20522;-68
2021/01/09 07:30:35;;;;;;;59.60;32.25;;;;;;;1.89;77.41;101723.19;4921663;29;20058;-68
2021/01/09 07:33:06;;;;;;;60.90;31.90;;;;;;;2.02;76.53;101723.81;4936577;29;20060;-68
2021/01/09 07:35:33;;;;;;;55.42;32.10;;;;;;;1.79;77.23;101731.06;4936664;29;20067;-64
2021/01/09 07:38:03;;;;;;;58.20;32.33;;;;;;;2.01;76.79;101724.03;4930591;29;20365;-67
2021/01/09 07:40:45;;;;;;;60.38;32.90;;;;;;;1.62;78.36;101743.63;4936649;29;20056;-67
2021/01/09 07:43:34;;;;;;;57.95;32.13;;;;;;;1.69;78.20;101745.19;4938250;29;20071;-66
2021/01/09 07:46:20;;;;;;;57.65;32.00;;;;;;;1.92;77.39;101742.56;4928582;29;20063;-68
2021/01/09 07:48:48;;;;;;;57.10;30.42;;;;;;;1.73;77.46;101753.69;4929022;29;20048;-67
2021/01/09 07:51:17;;;;;;;56.58;29.92;;;;;;;1.63;78.04;101761.56;4919487;29;20051;-67
2021/01/09 07:53:48;;;;;;;53.00;29.05;;;;;;;1.77;77.74;101769.31;4936725;29;20047;-65
2021/01/09 07:56:39;;;;;;;56.88;31.33;;;;;;;1.71;77.42;101766.72;4934863;29;20444;-66
2021/01/09 07:59:06;;;;;;;56.78;30.98;;;;;;;1.82;77.92;101777.59;4935337;29;20055;-67
2021/01/09 08:01:42;;;;;;;57.45;28.58;;;;;;;1.91;76.81;101784.38;4936904;29;20403;-65
2021/01/09 08:04:11;;;;;;;49.90;28.23;;;;;;;1.90;76.64;101782.72;4910997;29;20059;-67
2021/01/09 08:06:41;;;;;;;48.42;27.75;;;;;;;1.79;76.73;101790.81;4918166;29;20051;-67
2021/01/09 08:09:09;;;;;;;48.17;26.15;;;;;;;1.78;76.59;101798.13;4915646;29;20052;-67
2021/01/09 08:11:45;;;;;;;45.90;26.42;;;;;;;1.61;77.13;101798.97;4917709;29;20048;-66
2021/01/09 08:14:13;;;;;;;48.95;27.00;;;;;;;1.52;77.39;101811.22;4918050;29;20063;-66
2021/01/09 08:16:40;;;;;;;48.70;27.20;;;;;;;1.61;77.72;101805.25;4917450;29;20052;-66
2021/01/09 08:19:16;;;;;;;48.72;26.90;;;;;;;1.66;77.04;101805.41;4917102;29;20056;-66
2021/01/09 08:21:46;;;;;;;44.50;25.17;;;;;;;1.70;77.49;101816.63;4917056;29;20067;-65
2021/01/09 08:24:26;;;;;;;45.65;26.00;;;;;;;1.59;77.43;101826.38;4917061;29;20059;-66
2021/01/09 08:26:53;;;;;;;;;;;;;;;1.70;77.93;101817.47;4899915;29;20532;-64
2021/01/09 08:29:21;;;;;;;48.90;26.75;;;;;;;1.85;77.17;101820.59;4916857;29;19930;-66
2021/01/09 08:31:50;;;;;;;53.90;27.70;;;;;;;1.91;76.85;101829.72;4900187;29;20058;-66
2021/01/09 08:34:23;;;;;;;47.05;26.75;;;;;;;1.96;76.79;101825.28;4916327;29;20044;-66
2021/01/09 08:36:57;;;;;;;54.63;28.10;;;;;;;2.10;76.35;101826.75;4916923;29;20044;-66
2021/01/09 08:39:24;;;;;;;48.25;28.10;;;;;;;2.14;75.89;101830.63;4917683;29;20040;-68
2021/01/09 08:41:52;;;;;;;51.88;28.70;;;;;;;2.06;76.62;101835.56;4916980;29;20068;-68
2021/01/09 08:44:19;;;;;;;48.47;27.80;;;;;;;2.24;76.27;101840.97;4917425;29;20048;-67
2021/01/09 08:46:46;;;;;;;71.35;35.58;;;;;;;2.49;75.28;101828.03;4917620;29;20051;-67
2021/01/09 08:49:27;;;;;;;51.90;29.38;;;;;;;2.45;74.59;101843.16;4900073;29;20060;-68
2021/01/09 08:52:04;;;;;;;53.38;30.73;;;;;;;2.36;75.29;101843.72;4899884;29;20063;-67
2021/01/09 08:54:31;;;;;;;58.42;30.20;;;;;;;2.07;76.52;101854.38;4916386;29;20571;-67
2021/01/09 08:57:01;;;;;;;58.28;29.98;;;;;;;1.90;76.79;101844.38;4916989;29;20048;-67
2021/01/09 08:59:27;;;;;;;55.88;29.98;;;;;;;1.80;77.23;101857.66;4915835;29;20060;-66
2021/01/09 09:01:57;;;;;;;54.80;30.27;;;;;;;1.70;77.58;101852.78;4899743;29;20075;-66
2021/01/09 09:04:25;;;;;;;57.75;31.92;;;;;;;1.86;77.74;101851.31;4899369;29;20401;-64
2021/01/09 09:06:59;;;;;;;60.13;32.17;;;;;;;1.86;77.54;101860.31;4915852;29;20056;-64
2021/01/09 09:09:28;;;;;;;54.67;30.48;;;;;;;1.73;78.49;101855.03;4914518;29;20048;-64
2021/01/09 09:11:55;;;;;;;52.00;28.73;;;;;;;1.94;77.27;101861.84;4916984;29;20422;-65
2021/01/09 09:14:25;;;;;;;56.90;31.17;;;;;;;1.58;78.42;101857.31;4922433;29;20044;-66
2021/01/09 09:16:59;;;;;;;55.17;29.85;;;;;;;1.69;78.53;101863.88;4918694;29;20063;-67
2021/01/09 09:19:27;;;;;;;54.05;28.85;;;;;;;1.53;78.51;101865.31;4920452;29;20051;-63
2021/01/09 09:21:58;;;;;;;53.47;29.08;;;;;;;1.82;77.55;101866.41;4914375;29;20401;-68
2021/01/09 09:24:45;;;;;;;50.45;29.10;;;;;;;1.75;77.38;101869.22;4915266;29;20428;-68
2021/01/09 09:27:22;;;;;;;51.65;28.95;;;;;;;1.76;77.46;101859.19;4903617;29;20040;-74
2021/01/09 09:30:11;;;;;;;55.85;27.70;;;;;;;1.79;77.11;101864.16;4910048;29;20515;-69
2021/01/09 09:32:40;;;;;;;49.08;26.95;;;;;;;1.99;76.76;101873.69;4902400;29;20059;-70
2021/01/09 09:35:21;;;;;;;50.40;28.05;;;;;;;2.28;75.18;101866.63;4911925;29;20056;-65
2021/01/09 09:37:49;;;;;;;49.13;27.20;;;;;;;1.97;75.37;101870.38;4925382;29;20067;-68
2021/01/09 09:40:27;;;;;;;53.25;28.48;;;;;;;1.94;76.25;101868.13;4886470;29;20055;-68
2021/01/09 09:42:54;;;;;;;48.55;27.65;;;;;;;1.83;75.98;101871.59;4927562;29;20054;-67
2021/01/09 09:45:21;;;;;;;55.85;27.63;;;;;;;1.88;76.46;101866.31;4918760;29;20051;-68
2021/01/09 09:47:49;;;;;;;49.38;27.27;;;;;;;2.08;75.83;101864.19;4918816;29;20051;-66
2021/01/09 09:50:21;;;;;;;46.67;26.55;;;;;;;2.39;74.71;101873.97;4915250;29;20079;-68
2021/01/09 09:53:01;;;;;;;51.67;26.85;;;;;;;1.99;75.05;101876.41;4911037;29;20491;-69
2021/01/09 09:55:28;;;;;;;51.53;27.08;;;;;;;2.24;74.51;101877.13;4903681;29;20055;-70
2021/01/09 09:58:09;;;;;;;44.53;25.95;;;;;;;2.14;74.41;101881.47;4917237;29;20075;-70
2021/01/09 10:00:46;;;;;;;46.35;25.55;;;;;;;2.27;74.46;101882.09;4917742;29;20056;-67
2021/01/09 10:03:13;;;;;;;51.92;27.05;;;;;;;2.27;74.14;101884.81;4916567;29;20056;-67
2021/01/09 10:05:41;;;;;;;45.95;25.92;;;;;;;2.49;73.18;101887.03;4916395;29;20496;-67
2021/01/09 10:08:15;;;;;;;47.50;26.27;;;;;;;2.25;73.17;101883.38;4915088;29;20066;-67
2021/01/09 10:10:43;;;;;;;47.58;25.95;;;;;;;2.05;73.72;101886.38;4915070;29;20055;-68
2021/01/09 10:13:10;;;;;;;45.80;25.42;;;;;;;2.43;73.43;101890.66;4899045;29;20068;-67
2021/01/09 10:15:38;;;;;;;50.47;26.20;;;;;;;2.27;73.01;101892.13;4915769;29;20044;-64
2021/01/09 10:18:05;;;;;;;52.13;27.23;;;;;;;2.47;73.00;101892.69;4923145;29;20052;-66
2021/01/09 10:20:31;;;;;;;51.33;26.67;;;;;;;2.33;72.71;101893.09;4916694;29;20063;-66
2021/01/09 10:22:58;;;;;;;49.70;26.10;;;;;;;2.44;73.15;101885.00;4896991;29;20067;-68
2021/01/09 10:25:26;;;;;;;46.05;24.75;;;;;;;2.37;72.44;101889.72;4905995;29;20479;-69
2021/01/09 10:27:52;;;;;;;47.45;25.92;;;;;;;2.27;72.38;101883.97;4899137;29;20040;-68
2021/01/09 10:30:20;;;;;;;47.08;24.85;;;;;;;2.52;71.99;101892.00;4914410;29;20401;-68
2021/01/09 10:32:47;;;;;;;46.53;24.83;;;;;;;2.70;71.10;101890.06;4914977;29;20059;-66
2021/01/09 10:35:15;;;;;;;45.22;25.27;;;;;;;3.23;71.99;101885.38;4915061;29;20053;-68
2021/01/09 10:37:42;;;;;;;49.17;25.02;;;;;;;3.32;71.08;101886.69;4897965;29;20045;-67
2021/01/09 10:40:09;;;;;;;44.42;23.38;;;;;;;3.49;70.08;101880.53;4915729;29;20068;-68
2021/01/09 10:42:36;;;;;;;44.03;24.20;;;;;;;3.00;69.53;101884.53;4908782;29;20048;-67
2021/01/09 10:45:06;;;;;;;43.75;25.45;;;;;;;2.91;69.91;101875.06;4894590;29;20138;-67
2021/01/09 10:47:33;;;;;;;47.22;25.33;;;;;;;3.11;69.48;101883.72;4897805;29;20055;-65
2021/01/09 10:50:00;;;;;;;51.08;27.20;;;;;;;3.06;69.75;101878.16;4912596;29;20054;-68
2021/01/09 10:52:27;;;;;;;45.17;25.33;;;;;;;2.57;70.76;101886.69;4924086;29;20518;-66
2021/01/09 10:54:54;;;;;;;48.63;24.10;;;;;;;2.51;71.03;101877.56;4881563;29;20138;-64
2021/01/09 10:57:22;;;;;;;46.47;25.63;;;;;;;2.51;71.16;101884.91;4922354;29;20056;-65
2021/01/09 10:59:48;;;;;;;52.30;25.85;;;;;;;2.34;71.81;101878.47;4924073;29;20485;-65
2021/01/09 11:02:15;;;;;;;43.45;24.50;;;;;;;2.43;71.72;101880.63;4916207;29;20064;-66
2021/01/09 11:04:42;;;;;;;48.28;24.55;;;;;;;2.38;71.81;101868.78;4922365;29;20380;-67
2021/01/09 11:07:09;;;;;;;44.47;24.23;;;;;;;2.46;71.30;101860.31;4918236;29;20052;-67
2021/01/09 11:09:36;;;;;;;43.70;23.73;;;;;;;2.39;71.01;101859.56;4919691;29;20052;-65
2021/01/09 11:12:03;;;;;;;45.13;25.17;;;;;;;2.34;71.66;101867.59;4927898;29;20491;-67
2021/01/09 11:14:30;;;;;;;47.05;24.88;;;;;;;2.35;71.72;101861.09;4929469;29;20059;-67
2021/01/09 11:16:59;;;;;;;43.30;23.70;;;;;;;2.27;71.78;101859.53;4917405;29;20056;-66
2021/01/09 11:19:27;;;;;;;43.67;23.35;;;;;;;2.24;72.24;101852.69;4919833;29;20054;-69
2021/01/09 11:22:00;;;;;;;46.03;25.73;;;;;;;2.32;71.94;101851.50;4921756;29;20396;-66
2021/01/09 11:24:32;;;;;;;49.75;25.30;;;;;;;2.54;71.48;101851.81;4927202;29;20138;-65
2021/01/09 11:27:07;;;;;;;49.60;24.48;;;;;;;2.63;70.61;101847.69;4908777;29;20075;-66